sensor_id;sensor_type;location;lat;lon;timestamp;pressure;altitude;pressure_sealevel;temperature
45850;BMP180;10739;52.198;20.908;2022-08-16T00:00:43;99674.00;;;26.10
45850;BMP180;10739;52.198;20.908;2022-08-16T00:03:10;99664.00;;;26.00
45850;BMP180;10739;52.198;20.908;2022-08-16T00:05:37;99670.00;;;26.00
45850;BMP180;10739;52.198;20.908;2022-08-16T00:08:04;99678.00;;;26.00
45850;BMP180;10739;52.198;20.908;2022-08-16T00:10:32;99679.00;;;25.90
45850;BMP180;10739;52.198;20.908;2022-08-16T00:13:07;99682.00;;;26.00
45850;BMP180;10739;52.198;20.908;2022-08-16T00:15:42;99674.00;;;25.90
45850;BMP180;10739;52.198;20.908;2022-08-16T00:18:09;99675.00;;;26.10
45850;BMP180;10739;52.198;20.908;2022-08-16T00:20:40;99673.00;;;25.90
45850;BMP180;10739;52.198;20.908;2022-08-16T00:23:08;99677.00;;;25.90
45850;BMP180;10739;52.198;20.908;2022-08-16T00:25:34;99684.00;;;25.90
45850;BMP180;10739;52.198;20.908;2022-08-16T00:28:02;99680.00;;;25.90
45850;BMP180;10739;52.198;20.908;2022-08-16T00:30:28;99682.00;;;25.90
45850;BMP180;10739;52.198;20.908;2022-08-16T00:32:59;99681.00;;;25.90
45850;BMP180;10739;52.198;20.908;2022-08-16T00:35:31;99683.00;;;25.90
45850;BMP180;10739;52.198;20.908;2022-08-16T00:37:59;99686.00;;;25.90
45850;BMP180;10739;52.198;20.908;2022-08-16T00:40:54;99689.00;;;25.90
45850;BMP180;10739;52.198;20.908;2022-08-16T00:43:30;99688.00;;;25.80
45850;BMP180;10739;52.198;20.908;2022-08-16T00:46:27;99687.00;;;25.90
45850;BMP180;10739;52.198;20.908;2022-08-16T00:48:55;99686.00;;;25.80
45850;BMP180;10739;52.198;20.908;2022-08-16T00:51:23;99692.00;;;25.80
45850;BMP180;10739;52.198;20.908;2022-08-16T00:53:52;99682.00;;;25.70
45850;BMP180;10739;52.198;20.908;2022-08-16T00:56:23;99685.00;;;25.70
45850;BMP180;10739;52.198;20.908;2022-08-16T00:58:52;99679.00;;;25.70
45850;BMP180;10739;52.198;20.908;2022-08-16T01:01:19;99689.00;;;25.60
45850;BMP180;10739;52.198;20.908;2022-08-16T01:03:53;99686.00;;;25.50
45850;BMP180;10739;52.198;20.908;2022-08-16T01:06:20;99683.00;;;25.50
45850;BMP180;10739;52.198;20.908;2022-08-16T01:08:52;99683.00;;;25.40
45850;BMP180;10739;52.198;20.908;2022-08-16T01:11:22;99678.00;;;25.50
45850;BMP180;10739;52.198;20.908;2022-08-16T01:13:55;99677.00;;;25.50
45850;BMP180;10739;52.198;20.908;2022-08-16T01:16:26;99676.00;;;25.40
45850;BMP180;10739;52.198;20.908;2022-08-16T01:21:56;99675.00;;;25.60
45850;BMP180;10739;52.198;20.908;2022-08-16T01:24:45;99678.00;;;25.60
45850;BMP180;10739;52.198;20.908;2022-08-16T01:27:34;99670.00;;;25.70
45850;BMP180;10739;52.198;20.908;2022-08-16T01:30:12;99676.00;;;25.60
45850;BMP180;10739;52.198;20.908;2022-08-16T01:32:39;99664.00;;;25.70
45850;BMP180;10739;52.198;20.908;2022-08-16T01:35:23;99669.00;;;25.50
45850;BMP180;10739;52.198;20.908;2022-08-16T01:37:54;99663.00;;;25.50
45850;BMP180;10739;52.198;20.908;2022-08-16T01:40:28;99656.00;;;25.50
45850;BMP180;10739;52.198;20.908;2022-08-16T01:42:55;99648.00;;;25.50
45850;BMP180;10739;52.198;20.908;2022-08-16T01:45:22;99647.00;;;25.40
45850;BMP180;10739;52.198;20.908;2022-08-16T01:47:50;99648.00;;;25.40
45850;BMP180;10739;52.198;20.908;2022-08-16T01:50:18;99646.00;;;25.40
45850;BMP180;10739;52.198;20.908;2022-08-16T01:52:45;99647.00;;;25.40
45850;BMP180;10739;52.198;20.908;2022-08-16T01:55:11;99642.00;;;25.40
45850;BMP180;10739;52.198;20.908;2022-08-16T01:57:38;99645.00;;;25.30
45850;BMP180;10739;52.198;20.908;2022-08-16T02:00:08;99637.00;;;25.40
45850;BMP180;10739;52.198;20.908;2022-08-16T02:02:38;99635.00;;;25.40
45850;BMP180;10739;52.198;20.908;2022-08-16T02:05:05;99631.00;;;25.40
45850;BMP180;10739;52.198;20.908;2022-08-16T02:07:31;99632.00;;;25.40
45850;BMP180;10739;52.198;20.908;2022-08-16T02:09:58;99626.00;;;25.50
45850;BMP180;10739;52.198;20.908;2022-08-16T02:12:25;99637.00;;;25.30
45850;BMP180;10739;52.198;20.908;2022-08-16T02:14:52;99629.00;;;25.30
45850;BMP180;10739;52.198;20.908;2022-08-16T02:17:18;99629.00;;;25.20
45850;BMP180;10739;52.198;20.908;2022-08-16T02:19:44;99633.00;;;25.20
45850;BMP180;10739;52.198;20.908;2022-08-16T02:22:20;99625.00;;;25.20
45850;BMP180;10739;52.198;20.908;2022-08-16T02:24:46;99619.00;;;25.10
45850;BMP180;10739;52.198;20.908;2022-08-16T02:27:13;99617.00;;;25.10
45850;BMP180;10739;52.198;20.908;2022-08-16T02:29:40;99621.00;;;25.00
45850;BMP180;10739;52.198;20.908;2022-08-16T02:32:11;99621.00;;;25.10
45850;BMP180;10739;52.198;20.908;2022-08-16T02:34:38;99635.00;;;25.10
45850;BMP180;10739;52.198;20.908;2022-08-16T02:37:04;99634.00;;;25.10
45850;BMP180;10739;52.198;20.908;2022-08-16T02:39:30;99633.00;;;25.10
45850;BMP180;10739;52.198;20.908;2022-08-16T02:41:57;99634.00;;;25.00
45850;BMP180;10739;52.198;20.908;2022-08-16T02:44:23;99631.00;;;25.00
45850;BMP180;10739;52.198;20.908;2022-08-16T02:46:50;99631.00;;;25.00
45850;BMP180;10739;52.198;20.908;2022-08-16T02:49:16;99633.00;;;25.00
45850;BMP180;10739;52.198;20.908;2022-08-16T02:51:42;99628.00;;;25.10
45850;BMP180;10739;52.198;20.908;2022-08-16T02:54:12;99633.00;;;25.00
45850;BMP180;10739;52.198;20.908;2022-08-16T02:56:40;99626.00;;;25.00
45850;BMP180;10739;52.198;20.908;2022-08-16T02:59:07;99632.00;;;25.00
45850;BMP180;10739;52.198;20.908;2022-08-16T03:01:33;99626.00;;;24.90
45850;BMP180;10739;52.198;20.908;2022-08-16T03:04:03;99630.00;;;24.90
45850;BMP180;10739;52.198;20.908;2022-08-16T03:06:30;99621.00;;;25.00
45850;BMP180;10739;52.198;20.908;2022-08-16T03:08:56;99631.00;;;25.10
45850;BMP180;10739;52.198;20.908;2022-08-16T03:11:22;99623.00;;;25.00
45850;BMP180;10739;52.198;20.908;2022-08-16T03:13:53;99630.00;;;25.10
45850;BMP180;10739;52.198;20.908;2022-08-16T03:16:21;99621.00;;;25.00
45850;BMP180;10739;52.198;20.908;2022-08-16T03:18:48;99623.00;;;25.10
45850;BMP180;10739;52.198;20.908;2022-08-16T03:21:15;99612.00;;;25.20
45850;BMP180;10739;52.198;20.908;2022-08-16T03:23:41;99620.00;;;25.20
45850;BMP180;10739;52.198;20.908;2022-08-16T03:26:08;99624.00;;;25.20
45850;BMP180;10739;52.198;20.908;2022-08-16T03:28:34;99629.00;;;25.10
45850;BMP180;10739;52.198;20.908;2022-08-16T03:31:00;99629.00;;;25.20
45850;BMP180;10739;52.198;20.908;2022-08-16T03:33:27;99640.00;;;25.00
45850;BMP180;10739;52.198;20.908;2022-08-16T03:35:54;99641.00;;;24.90
45850;BMP180;10739;52.198;20.908;2022-08-16T03:38:28;99636.00;;;24.90
45850;BMP180;10739;52.198;20.908;2022-08-16T03:40:56;99643.00;;;25.00
45850;BMP180;10739;52.198;20.908;2022-08-16T03:43:23;99653.00;;;25.10
45850;BMP180;10739;52.198;20.908;2022-08-16T03:45:52;99647.00;;;25.00
45850;BMP180;10739;52.198;20.908;2022-08-16T03:48:27;99636.00;;;25.00
45850;BMP180;10739;52.198;20.908;2022-08-16T03:50:53;99643.00;;;25.00
45850;BMP180;10739;52.198;20.908;2022-08-16T03:53:20;99645.00;;;24.90
45850;BMP180;10739;52.198;20.908;2022-08-16T03:55:46;99648.00;;;24.80
45850;BMP180;10739;52.198;20.908;2022-08-16T03:58:13;99648.00;;;24.90
45850;BMP180;10739;52.198;20.908;2022-08-16T04:00:39;99641.00;;;24.90
45850;BMP180;10739;52.198;20.908;2022-08-16T04:03:06;99649.00;;;24.90
45850;BMP180;10739;52.198;20.908;2022-08-16T04:05:39;99649.00;;;25.00
45850;BMP180;10739;52.198;20.908;2022-08-16T04:08:07;99651.00;;;24.90
45850;BMP180;10739;52.198;20.908;2022-08-16T04:10:34;99653.00;;;25.00
45850;BMP180;10739;52.198;20.908;2022-08-16T04:13:01;99664.00;;;25.00
45850;BMP180;10739;52.198;20.908;2022-08-16T04:15:27;99663.00;;;25.20
45850;BMP180;10739;52.198;20.908;2022-08-16T04:17:55;99663.00;;;25.10
45850;BMP180;10739;52.198;20.908;2022-08-16T04:20:23;99663.00;;;25.10
45850;BMP180;10739;52.198;20.908;2022-08-16T04:22:51;99664.00;;;25.10
45850;BMP180;10739;52.198;20.908;2022-08-16T04:25:18;99665.00;;;25.10
45850;BMP180;10739;52.198;20.908;2022-08-16T04:27:45;99661.00;;;25.20
45850;BMP180;10739;52.198;20.908;2022-08-16T04:30:14;99654.00;;;25.10
45850;BMP180;10739;52.198;20.908;2022-08-16T04:32:42;99668.00;;;25.30
45850;BMP180;10739;52.198;20.908;2022-08-16T04:35:14;99663.00;;;25.10
45850;BMP180;10739;52.198;20.908;2022-08-16T04:37:45;99656.00;;;25.30
45850;BMP180;10739;52.198;20.908;2022-08-16T04:40:13;99666.00;;;25.40
45850;BMP180;10739;52.198;20.908;2022-08-16T04:42:40;99665.00;;;25.30
45850;BMP180;10739;52.198;20.908;2022-08-16T04:45:10;99674.00;;;25.30
45850;BMP180;10739;52.198;20.908;2022-08-16T04:47:40;99669.00;;;25.30
45850;BMP180;10739;52.198;20.908;2022-08-16T04:50:23;99669.00;;;25.30
45850;BMP180;10739;52.198;20.908;2022-08-16T04:52:51;99671.00;;;25.40
45850;BMP180;10739;52.198;20.908;2022-08-16T04:55:24;99677.00;;;25.30
45850;BMP180;10739;52.198;20.908;2022-08-16T04:57:54;99670.00;;;25.50
45850;BMP180;10739;52.198;20.908;2022-08-16T05:00:25;99675.00;;;25.50
45850;BMP180;10739;52.198;20.908;2022-08-16T05:02:53;99674.00;;;25.50
45850;BMP180;10739;52.198;20.908;2022-08-16T05:05:21;99671.00;;;25.50
45850;BMP180;10739;52.198;20.908;2022-08-16T05:07:48;99678.00;;;25.50
45850;BMP180;10739;52.198;20.908;2022-08-16T05:10:16;99682.00;;;25.70
45850;BMP180;10739;52.198;20.908;2022-08-16T05:12:42;99687.00;;;25.80
45850;BMP180;10739;52.198;20.908;2022-08-16T05:15:09;99683.00;;;25.80
45850;BMP180;10739;52.198;20.908;2022-08-16T05:17:37;99686.00;;;26.00
45850;BMP180;10739;52.198;20.908;2022-08-16T05:20:06;99691.00;;;26.10
45850;BMP180;10739;52.198;20.908;2022-08-16T05:22:33;99685.00;;;26.10
45850;BMP180;10739;52.198;20.908;2022-08-16T05:25:03;99697.00;;;26.00
45850;BMP180;10739;52.198;20.908;2022-08-16T05:27:29;99694.00;;;26.00
45850;BMP180;10739;52.198;20.908;2022-08-16T05:29:56;99688.00;;;26.10
45850;BMP180;10739;52.198;20.908;2022-08-16T05:32:22;99689.00;;;26.40
45850;BMP180;10739;52.198;20.908;2022-08-16T05:34:48;99685.00;;;26.40
45850;BMP180;10739;52.198;20.908;2022-08-16T05:37:14;99687.00;;;26.50
45850;BMP180;10739;52.198;20.908;2022-08-16T05:39:41;99691.00;;;26.60
45850;BMP180;10739;52.198;20.908;2022-08-16T05:42:07;99685.00;;;26.70
45850;BMP180;10739;52.198;20.908;2022-08-16T05:44:33;99689.00;;;26.70
45850;BMP180;10739;52.198;20.908;2022-08-16T05:47:00;99688.00;;;26.90
45850;BMP180;10739;52.198;20.908;2022-08-16T05:49:29;99680.00;;;26.90
45850;BMP180;10739;52.198;20.908;2022-08-16T05:51:55;99676.00;;;27.10
45850;BMP180;10739;52.198;20.908;2022-08-16T05:54:22;99682.00;;;27.20
45850;BMP180;10739;52.198;20.908;2022-08-16T05:56:48;99694.00;;;27.30
45850;BMP180;10739;52.198;20.908;2022-08-16T05:59:17;99685.00;;;26.90
45850;BMP180;10739;52.198;20.908;2022-08-16T06:01:44;99686.00;;;26.90
45850;BMP180;10739;52.198;20.908;2022-08-16T06:04:12;99692.00;;;27.20
45850;BMP180;10739;52.198;20.908;2022-08-16T06:06:41;99690.00;;;27.40
45850;BMP180;10739;52.198;20.908;2022-08-16T06:09:08;99689.00;;;27.40
45850;BMP180;10739;52.198;20.908;2022-08-16T06:11:35;99682.00;;;27.30
45850;BMP180;10739;52.198;20.908;2022-08-16T06:14:02;99690.00;;;27.30
45850;BMP180;10739;52.198;20.908;2022-08-16T06:16:28;99689.00;;;27.30
45850;BMP180;10739;52.198;20.908;2022-08-16T06:18:54;99689.00;;;27.40
45850;BMP180;10739;52.198;20.908;2022-08-16T06:21:21;99686.00;;;27.30
45850;BMP180;10739;52.198;20.908;2022-08-16T06:23:47;99685.00;;;27.30
45850;BMP180;10739;52.198;20.908;2022-08-16T06:26:13;99690.00;;;27.50
45850;BMP180;10739;52.198;20.908;2022-08-16T06:28:40;99686.00;;;27.60
45850;BMP180;10739;52.198;20.908;2022-08-16T06:31:10;99690.00;;;27.50
45850;BMP180;10739;52.198;20.908;2022-08-16T06:33:36;99700.00;;;27.60
45850;BMP180;10739;52.198;20.908;2022-08-16T06:36:03;99694.00;;;27.60
45850;BMP180;10739;52.198;20.908;2022-08-16T06:38:29;99700.00;;;27.60
45850;BMP180;10739;52.198;20.908;2022-08-16T06:40:56;99690.00;;;27.60
45850;BMP180;10739;52.198;20.908;2022-08-16T06:43:22;99698.00;;;27.80
45850;BMP180;10739;52.198;20.908;2022-08-16T06:45:48;99700.00;;;28.00
45850;BMP180;10739;52.198;20.908;2022-08-16T06:48:14;99704.00;;;28.00
45850;BMP180;10739;52.198;20.908;2022-08-16T06:50:41;99706.00;;;27.90
45850;BMP180;10739;52.198;20.908;2022-08-16T06:53:07;99702.00;;;27.80
45850;BMP180;10739;52.198;20.908;2022-08-16T06:55:34;99703.00;;;28.00
45850;BMP180;10739;52.198;20.908;2022-08-16T06:58:01;99702.00;;;27.90
45850;BMP180;10739;52.198;20.908;2022-08-16T07:00:27;99710.00;;;28.20
45850;BMP180;10739;52.198;20.908;2022-08-16T07:02:54;99702.00;;;28.50
45850;BMP180;10739;52.198;20.908;2022-08-16T07:05:21;99710.00;;;28.60
45850;BMP180;10739;52.198;20.908;2022-08-16T07:07:48;99708.00;;;28.80
45850;BMP180;10739;52.198;20.908;2022-08-16T07:10:18;99695.00;;;28.80
45850;BMP180;10739;52.198;20.908;2022-08-16T07:12:45;99696.00;;;28.90
45850;BMP180;10739;52.198;20.908;2022-08-16T07:15:17;99691.00;;;29.10
45850;BMP180;10739;52.198;20.908;2022-08-16T07:17:44;99699.00;;;29.20
45850;BMP180;10739;52.198;20.908;2022-08-16T07:20:12;99709.00;;;29.50
45850;BMP180;10739;52.198;20.908;2022-08-16T07:22:39;99711.00;;;29.70
45850;BMP180;10739;52.198;20.908;2022-08-16T07:25:12;99707.00;;;29.60
45850;BMP180;10739;52.198;20.908;2022-08-16T07:27:39;99706.00;;;30.00
45850;BMP180;10739;52.198;20.908;2022-08-16T07:30:13;99701.00;;;30.20
45850;BMP180;10739;52.198;20.908;2022-08-16T07:32:39;99703.00;;;30.10
45850;BMP180;10739;52.198;20.908;2022-08-16T07:35:06;99688.00;;;29.80
45850;BMP180;10739;52.198;20.908;2022-08-16T07:37:32;99688.00;;;30.10
45850;BMP180;10739;52.198;20.908;2022-08-16T07:39:58;99682.00;;;30.20
45850;BMP180;10739;52.198;20.908;2022-08-16T07:42:24;99685.00;;;30.40
45850;BMP180;10739;52.198;20.908;2022-08-16T07:44:50;99691.00;;;30.50
45850;BMP180;10739;52.198;20.908;2022-08-16T07:47:17;99691.00;;;30.80
45850;BMP180;10739;52.198;20.908;2022-08-16T07:49:43;99687.00;;;31.10
45850;BMP180;10739;52.198;20.908;2022-08-16T07:52:09;99689.00;;;31.40
45850;BMP180;10739;52.198;20.908;2022-08-16T07:54:35;99695.00;;;31.50
45850;BMP180;10739;52.198;20.908;2022-08-16T07:57:02;99698.00;;;31.50
45850;BMP180;10739;52.198;20.908;2022-08-16T07:59:28;99689.00;;;31.60
45850;BMP180;10739;52.198;20.908;2022-08-16T08:01:54;99686.00;;;31.60
45850;BMP180;10739;52.198;20.908;2022-08-16T08:04:20;99686.00;;;31.60
45850;BMP180;10739;52.198;20.908;2022-08-16T08:06:47;99696.00;;;31.80
45850;BMP180;10739;52.198;20.908;2022-08-16T08:09:13;99693.00;;;31.30
45850;BMP180;10739;52.198;20.908;2022-08-16T08:11:40;99699.00;;;31.20
45850;BMP180;10739;52.198;20.908;2022-08-16T08:14:06;99701.00;;;30.80
45850;BMP180;10739;52.198;20.908;2022-08-16T08:16:33;99691.00;;;30.60
45850;BMP180;10739;52.198;20.908;2022-08-16T08:19:00;99699.00;;;31.20
45850;BMP180;10739;52.198;20.908;2022-08-16T08:21:26;99699.00;;;31.40
45850;BMP180;10739;52.198;20.908;2022-08-16T08:23:52;99682.00;;;31.40
45850;BMP180;10739;52.198;20.908;2022-08-16T08:26:19;99693.00;;;31.90
45850;BMP180;10739;52.198;20.908;2022-08-16T08:28:45;99705.00;;;32.20
45850;BMP180;10739;52.198;20.908;2022-08-16T08:31:13;99700.00;;;32.20
45850;BMP180;10739;52.198;20.908;2022-08-16T08:33:39;99703.00;;;32.20
45850;BMP180;10739;52.198;20.908;2022-08-16T08:36:07;99707.00;;;32.40
45850;BMP180;10739;52.198;20.908;2022-08-16T08:38:38;99705.00;;;32.10
45850;BMP180;10739;52.198;20.908;2022-08-16T08:41:04;99711.00;;;32.10
45850;BMP180;10739;52.198;20.908;2022-08-16T08:43:33;99709.00;;;32.20
45850;BMP180;10739;52.198;20.908;2022-08-16T08:46:00;99713.00;;;32.30
45850;BMP180;10739;52.198;20.908;2022-08-16T08:48:27;99708.00;;;32.60
45850;BMP180;10739;52.198;20.908;2022-08-16T08:50:53;99716.00;;;32.50
45850;BMP180;10739;52.198;20.908;2022-08-16T08:53:20;99715.00;;;32.90
45850;BMP180;10739;52.198;20.908;2022-08-16T08:55:46;99714.00;;;32.80
45850;BMP180;10739;52.198;20.908;2022-08-16T08:58:14;99715.00;;;32.50
45850;BMP180;10739;52.198;20.908;2022-08-16T09:00:40;99709.00;;;33.30
45850;BMP180;10739;52.198;20.908;2022-08-16T09:03:06;99717.00;;;33.60
45850;BMP180;10739;52.198;20.908;2022-08-16T09:05:33;99712.00;;;33.90
45850;BMP180;10739;52.198;20.908;2022-08-16T09:08:00;99708.00;;;34.30
45850;BMP180;10739;52.198;20.908;2022-08-16T09:10:25;99705.00;;;34.70
45850;BMP180;10739;52.198;20.908;2022-08-16T09:12:51;99713.00;;;35.20
45850;BMP180;10739;52.198;20.908;2022-08-16T09:15:18;99710.00;;;35.70
45850;BMP180;10739;52.198;20.908;2022-08-16T09:17:45;99711.00;;;36.40
45850;BMP180;10739;52.198;20.908;2022-08-16T09:20:12;99711.00;;;36.60
45850;BMP180;10739;52.198;20.908;2022-08-16T09:22:41;99714.00;;;36.20
45850;BMP180;10739;52.198;20.908;2022-08-16T09:25:08;99723.00;;;36.50
45850;BMP180;10739;52.198;20.908;2022-08-16T09:27:35;99725.00;;;36.70
45850;BMP180;10739;52.198;20.908;2022-08-16T09:30:02;99728.00;;;36.60
45850;BMP180;10739;52.198;20.908;2022-08-16T09:32:29;99724.00;;;36.70
45850;BMP180;10739;52.198;20.908;2022-08-16T09:34:56;99723.00;;;37.20
45850;BMP180;10739;52.198;20.908;2022-08-16T09:37:22;99720.00;;;37.20
45850;BMP180;10739;52.198;20.908;2022-08-16T09:39:48;99719.00;;;37.90
45850;BMP180;10739;52.198;20.908;2022-08-16T09:42:15;99721.00;;;38.70
45850;BMP180;10739;52.198;20.908;2022-08-16T09:44:41;99731.00;;;38.80
45850;BMP180;10739;52.198;20.908;2022-08-16T09:47:08;99724.00;;;38.90
45850;BMP180;10739;52.198;20.908;2022-08-16T09:49:35;99734.00;;;39.10
45850;BMP180;10739;52.198;20.908;2022-08-16T09:52:01;99735.00;;;38.30
45850;BMP180;10739;52.198;20.908;2022-08-16T09:54:27;99735.00;;;38.70
45850;BMP180;10739;52.198;20.908;2022-08-16T09:56:53;99737.00;;;38.40
45850;BMP180;10739;52.198;20.908;2022-08-16T09:59:24;99749.00;;;37.80
45850;BMP180;10739;52.198;20.908;2022-08-16T10:01:52;99756.00;;;37.40
45850;BMP180;10739;52.198;20.908;2022-08-16T10:04:19;99761.00;;;36.50
45850;BMP180;10739;52.198;20.908;2022-08-16T10:06:46;99762.00;;;36.10
45850;BMP180;10739;52.198;20.908;2022-08-16T10:09:14;99766.00;;;35.90
45850;BMP180;10739;52.198;20.908;2022-08-16T10:11:42;99762.00;;;35.30
45850;BMP180;10739;52.198;20.908;2022-08-16T10:14:27;99770.00;;;34.50
45850;BMP180;10739;52.198;20.908;2022-08-16T10:17:03;99768.00;;;34.10
45850;BMP180;10739;52.198;20.908;2022-08-16T10:19:31;99768.00;;;34.00
45850;BMP180;10739;52.198;20.908;2022-08-16T10:21:59;99782.00;;;33.60
45850;BMP180;10739;52.198;20.908;2022-08-16T10:24:25;99777.00;;;33.40
45850;BMP180;10739;52.198;20.908;2022-08-16T10:26:51;99782.00;;;33.30
45850;BMP180;10739;52.198;20.908;2022-08-16T10:29:18;99780.00;;;33.20
45850;BMP180;10739;52.198;20.908;2022-08-16T10:31:45;99781.00;;;33.20
45850;BMP180;10739;52.198;20.908;2022-08-16T10:34:11;99779.00;;;33.20
45850;BMP180;10739;52.198;20.908;2022-08-16T10:36:37;99773.00;;;33.10
45850;BMP180;10739;52.198;20.908;2022-08-16T10:39:05;99780.00;;;33.50
45850;BMP180;10739;52.198;20.908;2022-08-16T10:41:32;99780.00;;;33.30
45850;BMP180;10739;52.198;20.908;2022-08-16T10:43:59;99777.00;;;33.20
45850;BMP180;10739;52.198;20.908;2022-08-16T10:46:25;99779.00;;;33.10
45850;BMP180;10739;52.198;20.908;2022-08-16T10:48:51;99790.00;;;33.00
45850;BMP180;10739;52.198;20.908;2022-08-16T10:51:18;99788.00;;;33.40
45850;BMP180;10739;52.198;20.908;2022-08-16T10:53:44;99786.00;;;33.30
45850;BMP180;10739;52.198;20.908;2022-08-16T10:56:11;99794.00;;;33.00
45850;BMP180;10739;52.198;20.908;2022-08-16T10:58:39;99794.00;;;32.80
45850;BMP180;10739;52.198;20.908;2022-08-16T11:01:07;99799.00;;;33.00
45850;BMP180;10739;52.198;20.908;2022-08-16T11:03:35;99803.00;;;33.20
45850;BMP180;10739;52.198;20.908;2022-08-16T11:06:07;99796.00;;;32.50
45850;BMP180;10739;52.198;20.908;2022-08-16T11:08:37;99801.00;;;32.50
45850;BMP180;10739;52.198;20.908;2022-08-16T11:11:06;99796.00;;;32.60
45850;BMP180;10739;52.198;20.908;2022-08-16T11:13:33;99796.00;;;32.50
45850;BMP180;10739;52.198;20.908;2022-08-16T11:16:00;99800.00;;;32.60
45850;BMP180;10739;52.198;20.908;2022-08-16T11:18:27;99805.00;;;32.80
45850;BMP180;10739;52.198;20.908;2022-08-16T11:20:55;99804.00;;;32.80
45850;BMP180;10739;52.198;20.908;2022-08-16T11:23:22;99805.00;;;33.10
45850;BMP180;10739;52.198;20.908;2022-08-16T11:25:49;99811.00;;;33.80
45850;BMP180;10739;52.198;20.908;2022-08-16T11:28:16;99799.00;;;34.70
45850;BMP180;10739;52.198;20.908;2022-08-16T11:30:42;99800.00;;;35.80
45850;BMP180;10739;52.198;20.908;2022-08-16T11:33:09;99790.00;;;36.40
45850;BMP180;10739;52.198;20.908;2022-08-16T11:35:36;99800.00;;;36.10
45850;BMP180;10739;52.198;20.908;2022-08-16T11:38:10;99802.00;;;36.00
45850;BMP180;10739;52.198;20.908;2022-08-16T11:40:42;99810.00;;;34.90
45850;BMP180;10739;52.198;20.908;2022-08-16T11:43:19;99826.00;;;34.00
45850;BMP180;10739;52.198;20.908;2022-08-16T11:45:49;99806.00;;;34.20
45850;BMP180;10739;52.198;20.908;2022-08-16T11:48:17;99812.00;;;34.10
45850;BMP180;10739;52.198;20.908;2022-08-16T11:50:57;99808.00;;;33.90
45850;BMP180;10739;52.198;20.908;2022-08-16T11:53:26;99812.00;;;33.50
45850;BMP180;10739;52.198;20.908;2022-08-16T11:55:55;99811.00;;;33.00
45850;BMP180;10739;52.198;20.908;2022-08-16T11:58:23;99808.00;;;33.00
45850;BMP180;10739;52.198;20.908;2022-08-16T12:00:52;99811.00;;;32.80
45850;BMP180;10739;52.198;20.908;2022-08-16T12:03:21;99812.00;;;32.70
45850;BMP180;10739;52.198;20.908;2022-08-16T12:05:48;99810.00;;;32.80
45850;BMP180;10739;52.198;20.908;2022-08-16T12:08:15;99817.00;;;32.60
45850;BMP180;10739;52.198;20.908;2022-08-16T12:10:42;99818.00;;;32.40
45850;BMP180;10739;52.198;20.908;2022-08-16T12:13:10;99806.00;;;32.30
45850;BMP180;10739;52.198;20.908;2022-08-16T12:15:37;99802.00;;;32.80
45850;BMP180;10739;52.198;20.908;2022-08-16T12:18:05;99799.00;;;33.00
45850;BMP180;10739;52.198;20.908;2022-08-16T12:20:36;99792.00;;;33.00
45850;BMP180;10739;52.198;20.908;2022-08-16T12:23:04;99785.00;;;33.00
45850;BMP180;10739;52.198;20.908;2022-08-16T12:25:32;99795.00;;;33.00
45850;BMP180;10739;52.198;20.908;2022-08-16T12:28:01;99779.00;;;33.00
45850;BMP180;10739;52.198;20.908;2022-08-16T12:30:32;99779.00;;;33.10
45850;BMP180;10739;52.198;20.908;2022-08-16T12:33:00;99780.00;;;33.30
45850;BMP180;10739;52.198;20.908;2022-08-16T12:35:35;99773.00;;;33.40
45850;BMP180;10739;52.198;20.908;2022-08-16T12:38:03;99765.00;;;33.60
45850;BMP180;10739;52.198;20.908;2022-08-16T12:40:34;99761.00;;;33.40
45850;BMP180;10739;52.198;20.908;2022-08-16T12:43:05;99752.00;;;33.40
45850;BMP180;10739;52.198;20.908;2022-08-16T12:45:37;99759.00;;;33.50
45850;BMP180;10739;52.198;20.908;2022-08-16T12:48:06;99749.00;;;33.40
45850;BMP180;10739;52.198;20.908;2022-08-16T12:50:52;99756.00;;;33.70
45850;BMP180;10739;52.198;20.908;2022-08-16T12:53:20;99755.00;;;34.30
45850;BMP180;10739;52.198;20.908;2022-08-16T12:55:47;99756.00;;;34.90
45850;BMP180;10739;52.198;20.908;2022-08-16T12:58:14;99752.00;;;34.90
45850;BMP180;10739;52.198;20.908;2022-08-16T13:00:41;99747.00;;;34.50
45850;BMP180;10739;52.198;20.908;2022-08-16T13:03:08;99752.00;;;34.10
45850;BMP180;10739;52.198;20.908;2022-08-16T13:05:36;99745.00;;;33.80
45850;BMP180;10739;52.198;20.908;2022-08-16T13:08:09;99739.00;;;33.20
45850;BMP180;10739;52.198;20.908;2022-08-16T13:10:41;99747.00;;;32.90
45850;BMP180;10739;52.198;20.908;2022-08-16T13:13:18;99744.00;;;32.90
45850;BMP180;10739;52.198;20.908;2022-08-16T13:15:54;99740.00;;;33.20
45850;BMP180;10739;52.198;20.908;2022-08-16T13:18:24;99739.00;;;33.10
45850;BMP180;10739;52.198;20.908;2022-08-16T13:20:51;99747.00;;;33.50
45850;BMP180;10739;52.198;20.908;2022-08-16T13:23:18;99738.00;;;33.60
45850;BMP180;10739;52.198;20.908;2022-08-16T13:25:47;99744.00;;;33.70
45850;BMP180;10739;52.198;20.908;2022-08-16T13:28:15;99737.00;;;33.90
45850;BMP180;10739;52.198;20.908;2022-08-16T13:30:48;99744.00;;;33.30
45850;BMP180;10739;52.198;20.908;2022-08-16T13:33:20;99734.00;;;33.40
45850;BMP180;10739;52.198;20.908;2022-08-16T13:35:50;99739.00;;;33.00
45850;BMP180;10739;52.198;20.908;2022-08-16T13:38:18;99737.00;;;33.00
45850;BMP180;10739;52.198;20.908;2022-08-16T13:40:45;99724.00;;;33.60
45850;BMP180;10739;52.198;20.908;2022-08-16T13:43:12;99718.00;;;34.70
45850;BMP180;10739;52.198;20.908;2022-08-16T13:45:39;99710.00;;;35.60
45850;BMP180;10739;52.198;20.908;2022-08-16T13:48:05;99719.00;;;36.50
45850;BMP180;10739;52.198;20.908;2022-08-16T13:50:33;99706.00;;;37.40
45850;BMP180;10739;52.198;20.908;2022-08-16T13:53:02;99714.00;;;37.20
45850;BMP180;10739;52.198;20.908;2022-08-16T13:55:29;99708.00;;;38.10
45850;BMP180;10739;52.198;20.908;2022-08-16T13:57:55;99709.00;;;38.50
45850;BMP180;10739;52.198;20.908;2022-08-16T14:00:21;99703.00;;;38.90
45850;BMP180;10739;52.198;20.908;2022-08-16T14:02:48;99703.00;;;39.30
45850;BMP180;10739;52.198;20.908;2022-08-16T14:05:14;99701.00;;;40.10